Time;durP1;ratioP1;P1;durP2;ratioP2;P2;SDS_P1;SDS_P2;PMS_P1;PMS_P2;Temp;Humidity;BMP_temperature;BMP_pressure;BME280_temperature;BME280_humidity;BME280_pressure;Samples;Min_cycle;Max_cycle;Signal;HPM_P1;HPM_P2
2022/04/19 00:02:04;;;;;;;8.23;4.30;;;;;;;-141.50;100.00;63355.56;5102931;28;20047;-80
2022/04/19 00:04:31;;;;;;;8.20;4.72;;;;;;;-141.50;100.00;63355.56;5110350;28;20042;-80
2022/04/19 00:06:58;;;;;;;12.00;4.93;;;;;;;-141.50;100.00;63355.56;5110251;28;20117;-80
2022/04/19 00:09:24;;;;;;;8.75;5.07;;;;;;;-141.50;100.00;63355.56;5095578;28;20180;-80
2022/04/19 00:11:51;;;;;;;8.60;4.43;;;;;;;-141.50;100.00;63355.56;5093211;28;20093;-79
2022/04/19 00:14:18;;;;;;;9.93;4.63;;;;;;;-141.50;100.00;63355.56;5102184;28;20052;-80
2022/04/19 00:16:45;;;;;;;7.97;4.45;;;;;;;-141.50;100.00;63355.56;5096233;28;20504;-81
2022/04/19 00:19:11;;;;;;;7.70;4.88;;;;;;;-141.50;100.00;63355.56;5095870;28;20082;-81
2022/04/19 00:21:38;;;;;;;9.10;5.10;;;;;;;-141.50;100.00;63355.56;5095371;28;20043;-81
2022/04/19 00:24:05;;;;;;;10.75;5.20;;;;;;;-141.50;100.00;63355.56;5098834;28;20051;-81
2022/04/19 00:26:32;;;;;;;9.25;5.07;;;;;;;-141.50;100.00;63355.56;5096844;28;20047;-82
2022/04/19 00:28:59;;;;;;;10.13;5.82;;;;;;;-141.50;100.00;63355.56;5097798;28;20044;-82
2022/04/19 00:31:26;;;;;;;8.07;4.95;;;;;;;-141.50;100.00;63355.56;5094572;28;20120;-84
2022/04/19 00:33:53;;;;;;;9.80;5.13;;;;;;;-141.50;100.00;63355.56;5096167;28;20108;-82
2022/04/19 00:36:21;;;;;;;13.73;5.13;;;;;;;-141.50;100.00;63355.56;5096382;28;20240;-82
2022/04/19 00:38:48;;;;;;;10.00;5.25;;;;;;;-141.50;100.00;63355.56;5095504;28;20131;-81
2022/04/19 00:41:16;;;;;;;12.10;5.13;;;;;;;-141.50;100.00;63355.56;5095055;28;20090;-82
2022/04/19 00:43:43;;;;;;;9.88;5.60;;;;;;;-141.50;100.00;63355.56;5096792;28;20076;-81
2022/04/19 00:46:10;;;;;;;9.68;4.82;;;;;;;-141.50;100.00;63355.56;5097656;28;20044;-83
2022/04/19 00:48:36;;;;;;;8.90;4.75;;;;;;;-141.50;100.00;63355.56;5097098;28;20052;-83
2022/04/19 00:51:05;;;;;;;11.20;5.38;;;;;;;-141.50;100.00;63355.56;5097543;28;20138;-80
2022/04/19 00:53:31;;;;;;;8.70;5.20;;;;;;;-141.50;100.00;63355.56;5094755;28;20044;-81
2022/04/19 00:55:58;;;;;;;9.63;5.55;;;;;;;-141.50;100.00;63355.56;5098808;28;20074;-81
2022/04/19 00:58:25;;;;;;;12.48;5.45;;;;;;;-141.50;100.00;63355.56;5098460;28;20044;-81
2022/04/19 01:00:52;;;;;;;9.50;5.32;;;;;;;-141.50;100.00;63355.56;5099320;28;20051;-80
2022/04/19 01:03:21;;;;;;;10.38;5.05;;;;;;;-141.50;100.00;63355.56;5105465;28;20444;-81
2022/04/19 01:05:48;;;;;;;7.30;4.55;;;;;;;-141.50;100.00;63355.56;5111734;28;20044;-82
2022/04/19 01:08:15;;;;;;;12.50;5.72;;;;;;;-141.50;100.00;63355.56;5098397;28;20059;-79
2022/04/19 01:10:45;;;;;;;8.15;5.32;;;;;;;-141.50;100.00;63355.56;5097387;28;20048;-79
2022/04/19 01:13:18;;;;;;;9.55;4.97;;;;;;;-141.50;100.00;63355.56;5096119;28;20047;-81
2022/04/19 01:15:47;;;;;;;11.10;5.40;;;;;;;-141.50;100.00;63355.56;5094340;28;20105;-81
2022/04/19 01:18:18;;;;;;;9.07;5.00;;;;;;;-141.50;100.00;63355.56;5097056;28;20055;-81
2022/04/19 01:20:44;;;;;;;12.90;5.60;;;;;;;-141.50;100.00;63355.56;5096709;28;20052;-82
2022/04/19 01:23:11;;;;;;;10.38;5.03;;;;;;;-141.50;100.00;63355.56;5096522;28;20067;-82
2022/04/19 01:25:37;;;;;;;8.32;4.38;;;;;;;-141.50;100.00;63355.56;5094736;28;20055;-81
2022/04/19 01:28:04;;;;;;;8.98;4.13;;;;;;;-141.50;100.00;63355.56;5096140;28;20130;-82
2022/04/19 01:30:32;;;;;;;8.55;4.68;;;;;;;-141.50;100.00;63355.56;5097407;28;20093;-78
2022/04/19 01:32:59;;;;;;;13.43;4.50;;;;;;;-141.50;100.00;63355.56;5100813;28;20048;-81
2022/04/19 01:35:26;;;;;;;8.20;4.75;;;;;;;-141.50;100.00;63355.56;5099241;28;20523;-80
2022/04/19 01:37:53;;;;;;;9.25;4.38;;;;;;;-141.50;100.00;63355.56;5101132;28;20048;-81
2022/04/19 01:40:20;;;;;;;9.13;4.70;;;;;;;-141.50;100.00;63355.56;5100931;28;20108;-82
2022/04/19 01:42:47;;;;;;;7.93;4.22;;;;;;;-141.50;100.00;63355.56;5100286;28;20051;-82
2022/04/19 01:45:18;;;;;;;8.63;4.28;;;;;;;-141.50;100.00;63355.56;5099206;28;20395;-82
2022/04/19 01:47:45;;;;;;;7.72;4.57;;;;;;;-141.50;100.00;63355.56;5100035;28;20048;-80
2022/04/19 01:50:14;;;;;;;7.53;4.13;;;;;;;-141.50;100.00;63355.56;5098446;28;20055;-81
2022/04/19 01:52:43;;;;;;;7.78;4.60;;;;;;;-141.50;100.00;63355.56;5097505;28;20048;-81
2022/04/19 01:55:15;;;;;;;8.90;4.50;;;;;;;-141.50;100.00;63355.56;5097205;28;20052;-80
2022/04/19 01:57:42;;;;;;;7.65;4.90;;;;;;;-141.50;100.00;63355.56;5097541;28;20424;-82
2022/04/19 02:00:11;;;;;;;7.07;4.10;;;;;;;-141.50;100.00;63355.56;5100917;28;20093;-80
2022/04/19 02:02:43;;;;;;;8.57;4.97;;;;;;;-141.50;100.00;63355.56;5093318;28;20048;-79
2022/04/19 02:05:10;;;;;;;10.00;4.68;;;;;;;-141.50;100.00;63355.56;5091938;28;20056;-80
2022/04/19 02:07:41;;;;;;;7.95;4.90;;;;;;;-141.50;100.00;63355.56;5091847;28;20488;-80
2022/04/19 02:10:09;;;;;;;9.23;4.60;;;;;;;-141.50;100.00;63355.56;5090153;28;20048;-79
2022/04/19 02:12:36;;;;;;;8.00;4.70;;;;;;;-141.50;100.00;63355.56;5090365;28;20052;-81
2022/04/19 02:15:03;;;;;;;7.20;4.45;;;;;;;-141.50;100.00;63355.56;5090901;28;20367;-79
2022/04/19 02:17:30;;;;;;;8.35;4.35;;;;;;;-141.50;100.00;63355.56;5089093;28;20508;-79
2022/04/19 02:20:01;;;;;;;8.93;4.90;;;;;;;-141.50;100.00;63355.56;5090870;28;20044;-78
2022/04/19 02:22:30;;;;;;;7.43;4.50;;;;;;;-141.50;100.00;63355.56;5095381;28;20048;-80
2022/04/19 02:24:58;;;;;;;8.02;4.65;;;;;;;-141.50;100.00;63355.56;5091660;28;20052;-77
2022/04/19 02:27:30;;;;;;;10.13;4.57;;;;;;;-141.50;100.00;63355.56;5091834;28;20093;-78
2022/04/19 02:29:57;;;;;;;8.80;4.68;;;;;;;-141.50;100.00;63355.56;5091569;28;20621;-78
2022/04/19 02:32:24;;;;;;;8.18;4.32;;;;;;;-141.50;100.00;63355.56;5091689;28;20104;-79
2022/04/19 02:34:51;;;;;;;9.07;4.40;;;;;;;-141.50;100.00;63355.56;5093959;28;20052;-80
2022/04/19 02:37:19;;;;;;;8.07;4.88;;;;;;;-141.50;100.00;63355.56;5094975;28;20052;-80
2022/04/19 02:39:49;;;;;;;9.20;5.10;;;;;;;-141.50;100.00;63355.56;5093656;28;20134;-79
2022/04/19 02:42:17;;;;;;;8.25;4.70;;;;;;;-141.50;100.00;63355.56;5089572;28;20083;-78
2022/04/19 02:44:43;;;;;;;9.80;4.90;;;;;;;-141.50;100.00;63355.56;5102658;28;20766;-77
2022/04/19 02:47:10;;;;;;;7.70;4.90;;;;;;;-141.50;100.00;63355.56;5093434;28;20074;-77
2022/04/19 02:49:37;;;;;;;7.60;4.53;;;;;;;-141.50;100.00;63355.56;5091201;28;20086;-79
2022/04/19 02:52:04;;;;;;;8.75;4.40;;;;;;;-141.50;100.00;63355.56;5089281;28;20492;-79
2022/04/19 02:54:31;;;;;;;8.30;5.10;;;;;;;-141.50;100.00;63355.56;5091236;28;20060;-80
2022/04/19 02:56:58;;;;;;;9.80;5.13;;;;;;;-141.50;100.00;63355.56;5090388;28;20075;-78
2022/04/19 02:59:24;;;;;;;11.40;4.70;;;;;;;-141.50;100.00;63355.56;5090903;28;20633;-78
2022/04/19 03:01:51;;;;;;;8.77;4.90;;;;;;;-141.50;100.00;63355.56;5090105;28;20063;-78
2022/04/19 03:04:20;;;;;;;8.80;5.00;;;;;;;-141.50;100.00;63355.56;5089046;28;20063;-78
2022/04/19 03:06:47;;;;;;;12.35;5.03;;;;;;;-141.50;100.00;63355.56;5091163;28;20646;-79
2022/04/19 03:09:14;;;;;;;13.00;5.40;;;;;;;-141.50;100.00;63355.56;5090745;28;20048;-78
2022/04/19 03:11:40;;;;;;;11.73;5.85;;;;;;;-141.50;100.00;63355.56;5089459;28;20048;-78
2022/04/19 03:14:07;;;;;;;8.93;5.40;;;;;;;-141.50;100.00;63355.56;5090817;28;20048;-79
2022/04/19 03:16:34;;;;;;;11.20;6.25;;;;;;;-141.50;100.00;63355.56;5089194;28;20306;-80
2022/04/19 03:19:00;;;;;;;10.68;5.75;;;;;;;-141.50;100.00;63355.56;5089941;28;20078;-79
2022/04/19 03:21:27;;;;;;;13.05;5.70;;;;;;;-141.50;100.00;63355.56;5089480;28;20222;-79
2022/04/19 03:29:23;;;;;;;8.85;5.53;;;;;;;-141.50;100.00;63355.56;5105095;28;20286;-80
2022/04/19 03:31:50;;;;;;;10.77;5.97;;;;;;;-141.50;100.00;63355.56;5110601;28;20081;-78
2022/04/19 03:34:17;;;;;;;10.32;6.10;;;;;;;-141.50;100.00;63355.56;5090686;28;20098;-79
2022/04/19 03:36:46;;;;;;;11.95;6.10;;;;;;;-141.50;100.00;63355.56;5090230;28;20055;-78
2022/04/19 03:39:12;;;;;;;9.32;6.07;;;;;;;-141.50;100.00;63355.56;5089479;28;20048;-78
2022/04/19 03:41:58;;;;;;;12.07;5.80;;;;;;;-141.50;100.00;63355.56;5089062;28;20508;-78
2022/04/19 03:44:29;;;;;;;11.07;6.03;;;;;;;-141.50;100.00;63355.56;5091540;28;20048;-79
2022/04/19 03:47:09;;;;;;;10.52;6.55;;;;;;;-141.50;100.00;63355.56;5103675;28;20052;-79
2022/04/19 03:49:37;;;;;;;10.38;5.68;;;;;;;-141.50;100.00;63355.56;5103812;28;20043;-80
2022/04/19 03:52:04;;;;;;;10.52;6.20;;;;;;;-141.50;100.00;63355.56;5107981;28;20059;-79
2022/04/19 03:54:34;;;;;;;13.98;6.45;;;;;;;-141.50;100.00;63355.56;5091233;28;20048;-78
2022/04/19 03:57:07;;;;;;;12.60;6.43;;;;;;;-141.50;100.00;63355.56;5090931;28;20047;-79
2022/04/19 03:59:36;;;;;;;11.05;6.68;;;;;;;-141.50;100.00;63355.56;5090708;28;20054;-78
2022/04/19 04:02:03;;;;;;;12.18;6.55;;;;;;;-141.50;100.00;63355.56;5089233;28;20055;-81
2022/04/19 04:04:35;;;;;;;12.38;6.43;;;;;;;-141.50;100.00;63355.56;5090126;28;20153;-79
2022/04/19 04:07:06;;;;;;;9.38;5.95;;;;;;;-141.50;100.00;63355.56;5090954;28;20143;-80
2022/04/19 04:09:32;;;;;;;12.35;6.40;;;;;;;-141.50;100.00;63355.56;5098985;28;20097;-80
2022/04/19 04:12:03;;;;;;;14.98;6.85;;;;;;;-141.50;100.00;63355.56;5099608;28;20059;-81
2022/04/19 04:14:30;;;;;;;11.73;7.00;;;;;;;-141.50;100.00;63355.56;5101399;28;20071;-80
2022/04/19 04:16:58;;;;;;;11.10;6.20;;;;;;;-141.50;100.00;63355.56;5098192;28;20109;-80
2022/04/19 04:19:24;;;;;;;11.18;6.45;;;;;;;-141.50;100.00;63355.56;5090250;28;20094;-80
2022/04/19 04:21:51;;;;;;;12.45;6.13;;;;;;;-141.50;100.00;63355.56;5081027;28;20052;-80
2022/04/19 04:24:18;;;;;;;12.77;6.45;;;;;;;-141.50;100.00;63355.56;5087420;28;20071;-81
2022/04/19 04:26:44;;;;;;;14.02;6.63;;;;;;;-141.50;100.00;63355.56;5085811;28;20102;-80
2022/04/19 04:29:11;;;;;;;16.00;6.63;;;;;;;-141.50;100.00;63355.56;5083371;28;20075;-81
2022/04/19 04:31:38;;;;;;;12.52;6.78;;;;;;;-141.50;100.00;63355.56;5083030;28;20109;-80
2022/04/19 04:34:06;;;;;;;12.63;6.65;;;;;;;-141.50;100.00;63355.56;5077828;28;20055;-79
2022/04/19 04:36:33;;;;;;;14.05;7.25;;;;;;;-141.50;100.00;63355.56;5073975;28;20044;-79
2022/04/19 04:38:59;;;;;;;11.85;6.78;;;;;;;-141.50;100.00;63355.56;5079663;28;20049;-80
2022/04/19 04:41:26;;;;;;;10.55;6.50;;;;;;;-141.50;100.00;63355.56;5080179;28;20152;-80
2022/04/19 04:43:53;;;;;;;14.40;7.18;;;;;;;-141.50;100.00;63355.56;5080739;28;20036;-80
2022/04/19 04:51:50;;;;;;;15.10;7.43;;;;;;;-141.50;100.00;63355.56;5076771;28;20093;-78
2022/04/19 04:54:17;;;;;;;17.48;7.15;;;;;;;-141.50;100.00;63355.56;5078124;28;20117;-78
2022/04/19 04:56:43;;;;;;;13.02;6.80;;;;;;;-141.50;100.00;63355.56;5076995;28;20053;-79
2022/04/19 04:59:10;;;;;;;16.95;6.97;;;;;;;-141.50;100.00;63355.56;5090385;28;20090;-79
2022/04/19 05:01:38;;;;;;;12.18;6.90;;;;;;;-141.50;100.00;63355.56;5089045;28;20102;-79
2022/04/19 05:04:04;;;;;;;10.80;6.72;;;;;;;-141.50;100.00;63355.56;5088438;28;20108;-79
2022/04/19 05:06:31;;;;;;;17.25;7.90;;;;;;;-141.50;100.00;63355.56;5092537;28;20048;-79
2022/04/19 05:08:58;;;;;;;13.60;7.50;;;;;;;-141.50;100.00;63355.56;5092588;28;20048;-80
2022/04/19 05:11:24;;;;;;;18.10;7.72;;;;;;;-141.50;100.00;63355.56;5092423;28;20728;-80
2022/04/19 05:13:51;;;;;;;11.82;7.25;;;;;;;-141.50;100.00;63355.56;5093740;28;20097;-79
2022/04/19 05:16:17;;;;;;;14.23;8.00;;;;;;;-141.50;100.00;63355.56;5088493;28;20048;-79
2022/04/19 05:18:44;;;;;;;12.52;7.05;;;;;;;-141.50;100.00;63355.56;5071899;28;20066;-79
2022/04/19 05:21:10;;;;;;;21.38;7.50;;;;;;;-141.50;100.00;63355.56;5079821;28;20411;-79
2022/04/19 05:23:38;;;;;;;16.60;7.97;;;;;;;-141.50;100.00;63355.56;5093001;28;20044;-79
2022/04/19 05:26:04;;;;;;;15.13;7.78;;;;;;;-141.50;100.00;63355.56;5088215;28;20072;-79
2022/04/19 05:28:31;;;;;;;23.13;8.55;;;;;;;-141.50;100.00;63355.56;5074328;28;20056;-80
2022/04/19 05:30:57;;;;;;;16.98;7.68;;;;;;;-141.50;100.00;63355.56;5074044;28;20476;-79
2022/04/19 05:33:24;;;;;;;16.20;8.23;;;;;;;-141.50;100.00;63355.56;5071557;28;20483;-79
2022/04/19 05:35:51;;;;;;;12.60;7.25;;;;;;;-141.50;100.00;63355.56;5072440;28;20044;-80
2022/04/19 05:38:18;;;;;;;13.27;7.60;;;;;;;-141.50;100.00;63355.56;5072433;28;20057;-78
2022/04/19 05:40:44;;;;;;;16.45;8.05;;;;;;;-141.50;100.00;63355.56;5071465;28;20052;-78
2022/04/19 05:43:10;;;;;;;12.25;7.93;;;;;;;-141.50;100.00;63355.56;5073258;28;20064;-80
2022/04/19 05:45:39;;;;;;;15.65;7.95;;;;;;;-141.50;100.00;63355.56;5076370;28;20048;-78
2022/04/19 05:48:06;;;;;;;13.85;7.47;;;;;;;-141.50;100.00;63355.56;5083965;28;20044;-78
2022/04/19 05:50:33;;;;;;;13.80;7.50;;;;;;;-141.50;100.00;63355.56;5092481;28;20059;-78
2022/04/19 05:52:59;;;;;;;14.02;7.55;;;;;;;-141.50;100.00;63355.56;5086482;28;20451;-80
2022/04/19 05:55:26;;;;;;;12.38;7.30;;;;;;;-141.50;100.00;63355.56;5091973;28;20044;-79
2022/04/19 05:57:53;;;;;;;12.85;7.65;;;;;;;-141.50;100.00;63355.56;5093295;28;20048;-80
2022/04/19 06:00:20;;;;;;;13.80;7.60;;;;;;;-141.50;100.00;63355.56;5093836;28;20048;-81
2022/04/19 06:05:31;;;;;;;14.73;7.73;;;;;;;-141.50;100.00;63355.56;5091929;28;20079;-79
2022/04/19 06:07:58;;;;;;;12.45;7.45;;;;;;;-141.50;100.00;63355.56;5091079;28;20488;-79
2022/04/19 06:10:24;;;;;;;14.80;6.53;;;;;;;-141.50;100.00;63355.56;5090336;28;20052;-79
2022/04/19 06:12:51;;;;;;;11.00;6.60;;;;;;;-141.50;100.00;63355.56;5091500;28;20567;-79
2022/04/19 06:15:18;;;;;;;11.35;6.50;;;;;;;-141.50;100.00;63355.56;5081918;28;20044;-80
2022/04/19 06:17:45;;;;;;;11.52;6.70;;;;;;;-141.50;100.00;63355.56;5074740;28;20056;-81
2022/04/19 06:20:12;;;;;;;16.13;6.55;;;;;;;-141.50;100.00;63355.56;5077725;28;20048;-81
2022/04/19 06:22:38;;;;;;;16.60;6.70;;;;;;;-141.50;100.00;63355.56;5084535;28;20051;-81
2022/04/19 06:25:05;;;;;;;13.23;6.10;;;;;;;-141.50;100.00;63355.56;5073506;28;20067;-81
2022/04/19 06:27:32;;;;;;;10.55;5.70;;;;;;;-141.50;100.00;63355.56;5078904;28;20095;-81
2022/04/19 06:29:59;;;;;;;11.85;6.28;;;;;;;-141.50;100.00;63355.56;5079145;28;20052;-79
2022/04/19 06:32:25;;;;;;;15.18;6.10;;;;;;;-141.50;100.00;63355.56;5077270;28;20047;-80
2022/04/19 06:34:53;;;;;;;10.60;6.05;;;;;;;-141.50;100.00;63355.56;5080561;28;20051;-81
2022/04/19 06:37:22;;;;;;;13.32;5.57;;;;;;;-141.50;100.00;63355.56;5078405;28;20048;-79
2022/04/19 06:39:49;;;;;;;8.32;4.82;;;;;;;-141.50;100.00;63355.56;5077883;28;20136;-81
2022/04/19 06:42:16;;;;;;;13.73;5.13;;;;;;;-141.50;100.00;63355.56;5080830;28;20052;-80
2022/04/19 06:44:44;;;;;;;15.02;6.43;;;;;;;-141.50;100.00;63355.56;5072474;28;20052;-80
2022/04/19 06:47:11;;;;;;;11.38;5.43;;;;;;;-141.50;100.00;63355.56;5086514;28;20098;-80
2022/04/19 06:49:38;;;;;;;8.93;4.95;;;;;;;-141.50;100.00;63355.56;5082390;28;20123;-81
2022/04/19 06:52:06;;;;;;;12.05;6.00;;;;;;;-141.50;100.00;63355.56;5075615;28;20393;-81
2022/04/19 06:54:33;;;;;;;10.98;4.97;;;;;;;-141.50;100.00;63355.56;5079210;28;20044;-79
2022/04/19 06:57:00;;;;;;;15.32;6.10;;;;;;;-141.50;100.00;63355.56;5080750;28;20059;-79
2022/04/19 06:59:26;;;;;;;11.82;6.13;;;;;;;-141.50;100.00;63355.56;5075594;28;20048;-79
2022/04/19 07:01:53;;;;;;;10.18;5.60;;;;;;;-141.50;100.00;63355.56;5077657;28;20048;-79
2022/04/19 07:04:20;;;;;;;10.75;5.78;;;;;;;-141.50;100.00;63355.56;5076497;28;20735;-79
2022/04/19 07:06:47;;;;;;;10.02;5.45;;;;;;;-141.50;100.00;63355.56;5075533;28;20143;-78
2022/04/19 07:09:13;;;;;;;10.80;5.40;;;;;;;-141.50;100.00;63355.56;5079180;28;20450;-77
2022/04/19 07:11:40;;;;;;;9.57;5.47;;;;;;;-141.50;100.00;63355.56;5076635;28;20636;-80
2022/04/19 07:14:06;;;;;;;11.02;5.53;;;;;;;-141.50;100.00;63355.56;5076446;28;20405;-77
2022/04/19 07:16:33;;;;;;;9.52;5.43;;;;;;;-141.50;100.00;63355.56;5074065;28;20052;-77
2022/04/19 07:18:59;;;;;;;8.82;5.30;;;;;;;-141.50;100.00;63355.56;5086309;28;20047;-78
2022/04/19 07:27:19;;;;;;;8.75;5.05;;;;;;;-141.50;100.00;63355.56;5083453;28;20079;-79
2022/04/19 07:29:46;;;;;;;7.40;4.63;;;;;;;-141.50;100.00;63355.56;5085255;28;20071;-80
2022/04/19 07:32:12;;;;;;;7.25;3.92;;;;;;;-141.50;100.00;63355.56;5096573;28;20055;-81
2022/04/19 07:34:39;;;;;;;7.10;4.20;;;;;;;-141.50;100.00;63355.56;5106753;28;20543;-81
2022/04/19 07:37:05;;;;;;;6.63;3.85;;;;;;;-141.50;100.00;63355.56;5094327;28;20056;-79
2022/04/19 07:39:32;;;;;;;8.50;4.00;;;;;;;-141.50;100.00;63355.56;5085700;28;20056;-78
2022/04/19 07:42:00;;;;;;;6.60;3.78;;;;;;;-141.50;100.00;63355.56;5094457;28;20110;-78
2022/04/19 07:44:29;;;;;;;7.45;4.35;;;;;;;-141.50;100.00;63355.56;5080876;28;20047;-79
2022/04/19 07:46:55;;;;;;;8.02;4.25;;;;;;;-141.50;100.00;63355.56;5082877;28;20052;-79
2022/04/19 07:49:23;;;;;;;6.78;3.80;;;;;;;-141.50;100.00;63355.56;5089272;28;20274;-79
2022/04/19 07:51:50;;;;;;;8.27;4.10;;;;;;;-141.50;100.00;63355.56;5089449;28;20177;-79
2022/04/19 07:54:16;;;;;;;9.00;3.53;;;;;;;-141.50;100.00;63355.56;5090859;28;20102;-78
2022/04/19 07:56:43;;;;;;;6.43;3.70;;;;;;;-141.50;100.00;63355.56;5090226;28;20078;-79
2022/04/19 07:59:09;;;;;;;5.95;3.42;;;;;;;-141.50;100.00;63355.56;5079196;28;20064;-80
2022/04/19 08:01:36;;;;;;;7.45;3.50;;;;;;;-141.50;100.00;63355.56;5083037;28;20141;-80
2022/04/19 08:04:03;;;;;;;8.40;3.90;;;;;;;-141.50;100.00;63355.56;5077281;28;20044;-79
2022/04/19 08:06:30;;;;;;;10.70;4.25;;;;;;;-141.50;100.00;63355.56;5089394;28;20110;-80
2022/04/19 08:08:56;;;;;;;7.90;4.00;;;;;;;-141.50;100.00;63355.56;5095706;28;20048;-78
2022/04/19 08:11:23;;;;;;;13.32;3.78;;;;;;;-141.50;100.00;63355.56;5080312;28;20131;-79
2022/04/19 08:13:49;;;;;;;10.20;4.40;;;;;;;-141.50;100.00;63355.56;5078456;28;20139;-77
2022/04/19 08:16:16;;;;;;;6.43;3.65;;;;;;;-141.50;100.00;63355.56;5077907;28;20521;-80
2022/04/19 08:18:42;;;;;;;8.02;4.25;;;;;;;-141.50;100.00;63355.56;5078357;28;20102;-78
2022/04/19 08:21:09;;;;;;;7.97;4.22;;;;;;;-141.50;100.00;63355.56;5080909;28;20052;-78
2022/04/19 08:23:35;;;;;;;6.95;4.10;;;;;;;-141.50;100.00;63355.56;5089926;28;20087;-80
2022/04/19 08:26:02;;;;;;;9.18;4.43;;;;;;;-141.50;100.00;63355.56;5083440;28;20051;-77
2022/04/19 08:28:29;;;;;;;8.50;4.53;;;;;;;-141.50;100.00;63355.56;5078678;28;20562;-77
2022/04/19 08:30:55;;;;;;;9.80;4.45;;;;;;;-141.50;100.00;63355.56;5065533;28;20094;-77
2022/04/19 08:33:22;;;;;;;11.40;4.60;;;;;;;-141.50;100.00;63355.56;5078832;28;20589;-77
2022/04/19 08:35:48;;;;;;;9.90;4.30;;;;;;;-141.50;100.00;63355.56;5088746;28;20044;-77
2022/04/19 08:38:15;;;;;;;12.35;4.32;;;;;;;-141.50;100.00;63355.56;5088350;28;20052;-78
2022/04/19 08:40:41;;;;;;;9.75;4.53;;;;;;;-141.50;100.00;63355.56;5085805;28;20270;-76
2022/04/19 08:43:11;;;;;;;10.15;4.40;;;;;;;-141.50;100.00;63355.56;5087505;28;20519;-78
2022/04/19 08:45:37;;;;;;;10.40;4.60;;;;;;;-141.50;100.00;63355.56;5089311;28;20109;-79
2022/04/19 08:48:07;;;;;;;9.32;4.00;;;;;;;-141.50;100.00;63355.56;5082353;28;20094;-78
2022/04/19 08:50:33;;;;;;;7.43;4.43;;;;;;;-141.50;100.00;63355.56;5077979;28;20043;-79
2022/04/19 08:58:30;;;;;;;10.35;4.65;;;;;;;-141.50;100.00;63355.56;5068214;28;20135;-79
2022/04/19 09:00:56;;;;;;;10.02;4.78;;;;;;;-141.50;100.00;63355.56;5075130;28;20051;-78
2022/04/19 09:03:23;;;;;;;9.75;4.80;;;;;;;-141.50;100.00;63355.56;5073279;28;20438;-76
2022/04/19 09:05:51;;;;;;;8.82;4.95;;;;;;;-141.50;100.00;63355.56;5077725;28;20720;-77
2022/04/19 09:08:20;;;;;;;9.68;5.25;;;;;;;-141.50;100.00;63355.56;5074814;28;20055;-78
2022/04/19 09:10:47;;;;;;;10.35;5.45;;;;;;;-141.50;100.00;63355.56;5077125;28;20090;-78
2022/04/19 09:13:21;;;;;;;11.15;5.15;;;;;;;-141.50;100.00;63355.56;5076421;28;20495;-78
2022/04/19 09:15:48;;;;;;;11.45;5.28;;;;;;;-141.50;100.00;63355.56;5080278;28;20073;-78
2022/04/19 09:18:31;;;;;;;9.70;5.18;;;;;;;-141.50;100.00;63355.56;5076715;28;20051;-78
2022/04/19 09:20:59;;;;;;;10.80;5.32;;;;;;;-141.50;100.00;63355.56;5087157;28;20423;-77
2022/04/19 09:23:29;;;;;;;10.02;4.90;;;;;;;-141.50;100.00;63355.56;5087611;28;20085;-78
2022/04/19 09:26:00;;;;;;;11.48;5.05;;;;;;;-141.50;100.00;63355.56;5085571;28;20052;-78
2022/04/19 09:28:28;;;;;;;9.82;5.07;;;;;;;-141.50;100.00;63355.56;5087344;28;20048;-77
2022/04/19 09:30:57;;;;;;;12.43;4.45;;;;;;;-141.50;100.00;63355.56;5080699;28;20420;-78
2022/04/19 09:33:25;;;;;;;11.57;4.30;;;;;;;-141.50;100.00;63355.56;5069507;28;20066;-81
2022/04/19 09:35:54;;;;;;;9.40;4.68;;;;;;;-141.50;100.00;63355.56;5082458;28;20729;-77
2022/04/19 09:38:41;;;;;;;9.65;4.38;;;;;;;-141.50;100.00;63355.56;5066338;28;20048;-80
2022/04/19 09:41:09;;;;;;;8.68;4.60;;;;;;;-141.50;100.00;63355.56;5066442;28;20053;-78
2022/04/19 09:44:08;;;;;;;10.73;4.97;;;;;;;-141.50;100.00;63355.56;5067751;28;20102;-78
2022/04/19 09:46:36;;;;;;;8.90;4.18;;;;;;;-141.50;100.00;63355.56;5079325;28;20051;-78
2022/04/19 09:49:05;;;;;;;9.50;3.95;;;;;;;-141.50;100.00;63355.56;5086255;28;20052;-79
2022/04/19 09:51:33;;;;;;;8.80;4.07;;;;;;;-141.50;100.00;63355.56;5077078;28;20097;-79
2022/04/19 09:54:01;;;;;;;12.52;4.40;;;;;;;-141.50;100.00;63355.56;5082619;28;20048;-80
2022/04/19 09:56:35;;;;;;;7.43;4.00;;;;;;;-141.50;100.00;63355.56;5077972;28;20107;-80
2022/04/19 09:59:18;;;;;;;7.80;3.80;;;;;;;-141.50;100.00;63355.56;5090843;28;20067;-79
2022/04/19 10:10:04;;;;;;;7.65;3.83;;;;;;;-141.50;100.00;63355.56;5077388;28;20395;-77
2022/04/19 10:12:31;;;;;;;7.05;3.50;;;;;;;-141.50;100.00;63355.56;5075169;28;20048;-79
2022/04/19 10:14:59;;;;;;;6.97;3.60;;;;;;;-141.50;100.00;63355.56;5079996;28;20519;-78
2022/04/19 10:17:28;;;;;;;7.35;3.92;;;;;;;-141.50;100.00;63355.56;5077386;28;20053;-79
2022/04/19 10:19:55;;;;;;;9.85;3.90;;;;;;;-141.50;100.00;63355.56;5072990;28;20341;-79
2022/04/19 10:22:22;;;;;;;6.40;3.38;;;;;;;-141.50;100.00;63355.56;5071976;28;20056;-77
2022/04/19 10:24:52;;;;;;;7.38;3.35;;;;;;;-141.50;100.00;63355.56;5072958;28;20048;-78
2022/04/19 10:27:19;;;;;;;6.47;3.10;;;;;;;-141.50;100.00;63355.56;5070981;28;20060;-79
2022/04/19 10:29:46;;;;;;;8.40;3.28;;;;;;;-141.50;100.00;63355.56;5072946;28;20052;-79
2022/04/19 10:32:13;;;;;;;8.05;3.50;;;;;;;-141.50;100.00;63355.56;5076223;28;20420;-79
2022/04/19 10:34:45;;;;;;;5.75;3.17;;;;;;;-141.50;100.00;63355.56;5073089;28;20083;-79
2022/04/19 10:37:11;;;;;;;7.50;3.72;;;;;;;-141.50;100.00;63355.56;5071165;28;20048;-79
2022/04/19 10:39:45;;;;;;;8.02;3.33;;;;;;;-141.50;100.00;63355.56;5073064;28;20162;-79
2022/04/19 10:42:36;;;;;;;8.73;3.70;;;;;;;-141.50;100.00;63355.56;5070691;28;20045;-78
2022/04/19 10:45:11;;;;;;;7.00;3.58;;;;;;;-141.50;100.00;63355.56;5071321;28;20048;-79
2022/04/19 10:48:03;;;;;;;5.22;3.22;;;;;;;-141.50;100.00;63355.56;5072165;28;20102;-79
2022/04/19 10:50:30;;;;;;;7.22;3.38;;;;;;;-141.50;100.00;63355.56;5070342;28;20083;-78
2022/04/19 10:53:03;;;;;;;6.68;3.75;;;;;;;-141.50;100.00;63355.56;5070928;28;20464;-80
2022/04/19 10:55:31;;;;;;;6.60;3.53;;;;;;;-141.50;100.00;63355.56;5072730;28;20048;-78
2022/04/19 10:58:16;;;;;;;8.55;3.40;;;;;;;-141.50;100.00;63355.56;5083912;28;20577;-79
2022/04/19 11:00:45;;;;;;;6.90;3.33;;;;;;;-141.50;100.00;63355.56;5090587;28;20476;-79
2022/04/19 11:03:34;;;;;;;5.63;3.13;;;;;;;-141.50;100.00;63355.56;5091298;28;20135;-80
2022/04/19 11:06:04;;;;;;;5.88;3.28;;;;;;;-141.50;100.00;63355.56;5090447;28;20052;-79
2022/04/19 11:08:35;;;;;;;6.70;3.13;;;;;;;-141.50;100.00;63355.56;5090929;28;20056;-79
2022/04/19 11:11:07;;;;;;;5.90;3.40;;;;;;;-141.50;100.00;63355.56;5090588;28;20060;-80
2022/04/19 11:13:39;;;;;;;6.07;3.35;;;;;;;-141.50;100.00;63355.56;5105372;28;20068;-79
2022/04/19 11:16:07;;;;;;;6.18;3.10;;;;;;;-141.50;100.00;63355.56;5115666;28;20031;-79
2022/04/19 11:18:39;;;;;;;8.90;3.10;;;;;;;-141.50;100.00;63355.56;5109612;28;20382;-80
2022/04/19 11:21:47;;;;;;;5.93;2.92;;;;;;;-141.50;100.00;63355.56;5090639;28;20067;-80
2022/04/19 11:24:52;;;;;;;5.90;3.50;;;;;;;-141.50;100.00;63355.56;5091269;28;20048;-80
2022/04/19 11:27:19;;;;;;;6.65;3.30;;;;;;;-141.50;100.00;63355.56;5091723;28;20463;-78
2022/04/19 11:29:50;;;;;;;7.03;2.80;;;;;;;-141.50;100.00;63355.56;5091132;28;20059;-80
2022/04/19 11:32:22;;;;;;;8.32;2.97;;;;;;;-141.50;100.00;63355.56;5089985;28;20055;-79
2022/04/19 11:35:04;;;;;;;4.80;2.70;;;;;;;-141.50;100.00;63355.56;5089925;28;20044;-78
2022/04/19 11:37:32;;;;;;;6.78;3.03;;;;;;;-141.50;100.00;63355.56;5091474;28;20134;-79
2022/04/19 11:48:33;;;;;;;5.18;3.00;;;;;;;-141.50;100.00;63355.56;5088737;28;20054;-79
2022/04/19 11:51:10;;;;;;;7.70;3.00;;;;;;;-141.50;100.00;63355.56;5089794;28;20044;-78
2022/04/19 11:53:37;;;;;;;5.13;2.90;;;;;;;-141.50;100.00;63355.56;5089458;28;20489;-78
2022/04/19 11:56:04;;;;;;;5.72;2.70;;;;;;;-141.50;100.00;63355.56;5089609;28;20088;-79